• Join FlightAware (Why Join?)
  • Login
  • US Flag 
06:43AM EDT


 

Airport Tracker/Info


-or-


 

Live Flight TrackerFlight Track Log ✈ SWA1821 ✈ 19-May-2013 ✈ KPDX - KAUS

Flight Track Log - Related Links

Times and Time Zones

All times are in EDT time to prevent confusion due to time zone crossing. See the SWA1821 flight status page for this flight to view local times or setup timezone preferences in your user account.

Time Position Orientation Groundspeed Altitude Reporting Facility
EDT Latitude Longitude Course Direction KTS MPH feet Rate Location/Type
03:42PM 45.5942 -122.5978 293° West 156 180 900  Level Seattle Center
03:43PM 45.6072 -122.6419 293° West 195 224 2,800 3,000 Climbing Seattle Center
03:43PM 45.6167 -122.6667 299° West 192 221 4,300 3,960 Climbing Seattle Center
03:44PM 45.6328 -122.7147 296° West 216 249 6,800 3,240 Climbing Seattle Center
03:44PM 45.6308 -122.7486 265° West 226 260 7,600 2,760 Climbing Seattle Center
03:45PM 45.5647 -122.7544 184° South 285 328 10,800 2,940 Climbing Seattle Center
03:46PM 45.5181 -122.6372 120° Southeast 340 391 13,600 2,880 Climbing Seattle Center
03:47PM 45.4686 -122.5119 119° Southeast 359 413 16,700 2,760 Climbing Seattle Center
03:48PM 45.4144 -122.3764 120° Southeast 389 448 19,300 2,640 Climbing Seattle Center
03:49PM 45.3600 -122.2381 119° Southeast 399 459 22,100 2,400 Climbing Seattle Center
03:51PM 45.3003 -122.0897 120° Southeast 425 489 24,200 2,100 Climbing Seattle Center
03:52PM 45.2353 -121.9108 117° Southeast 450 518 26,400 1,980 Climbing Seattle Center
03:53PM 45.1944 -121.7361 108° East 467 537 28,300 1,620 Climbing Seattle Center
03:54PM 45.1469 -121.5564 110° East 488 562 29,800 1,380 Climbing Seattle Center
03:55PM 45.0989 -121.3697 110° East 504 580 31,200 1,260 Climbing Seattle Center
03:56PM 45.0472 -121.1772 111° Southeast 522 601 32,400 1,680 Climbing Seattle Center
03:57PM 44.9961 -120.9808 110° East 533 613 34,700 2,040 Climbing Seattle Center
03:58PM 44.9461 -120.7958 111° Southeast 511 588 36,600 1,860 Climbing Seattle Center
03:59PM 44.8869 -120.5786 111° Southeast 498 573 38,600 1,140 Climbing Seattle Center
04:00PM 44.8308 -120.4064 115° Southeast 490 564 39,000 180 Climbing Seattle Center
04:01PM 44.7642 -120.2411 120° Southeast 491 565 39,000  Level Seattle Center
04:02PM 44.6981 -120.0758 119° Southeast 494 568 39,000  Level Seattle Center
04:03PM 44.6314 -119.9097 119° Southeast 495 570 39,000  Level Seattle Center
04:04PM 44.5631 -119.7403 119° Southeast 503 579 39,000  Level Seattle Center
04:05PM 44.4936 -119.5683 119° Southeast 508 585 39,000  Level Seattle Center
04:06PM 44.4086 -119.3639 120° Southeast 511 588 39,000  Level Seattle Center
04:07PM 44.3381 -119.1925 120° Southeast 512 589 39,000  Level Seattle Center
04:08PM 44.2683 -119.0219 120° Southeast 508 585 39,000  Level Seattle Center
04:09PM 44.1953 -118.8547 121° Southeast 506 582 39,000  Level Seattle Center
04:10PM 44.1256 -118.6872 120° Southeast 504 580 39,000  Level Seattle Center
04:11PM 44.0575 -118.5275 121° Southeast 501 577 39,000  Level Seattle Center
04:12PM 43.9800 -118.3422 120° Southeast 498 573 39,000  Level Seattle Center
04:13PM 43.9131 -118.1850 121° Southeast 497 572 39,000  Level Seattle Center
04:14PM 43.8328 -117.9997 121° Southeast 501 577 39,000  Level Seattle Center
04:15PM 43.7625 -117.8417 122° Southeast 498 573 39,000  Level Salt Lake Center
04:16PM 43.6836 -117.6600 121° Southeast 494 568 39,000  Level Salt Lake Center
04:17PM 43.6158 -117.5044 121° Southeast 495 570 39,000  Level Salt Lake Center
04:18PM 43.5464 -117.3481 121° Southeast 501 577 39,000  Level Salt Lake Center
04:19PM 43.4669 -117.1672 121° Southeast 498 573 39,000  Level Salt Lake Center
04:20PM 43.3978 -117.0117 121° Southeast 501 577 39,000  Level Salt Lake Center
04:21PM 43.3172 -116.8308 121° Southeast 499 574 39,000  Level Salt Lake Center
04:22PM 43.2472 -116.6747 122° Southeast 503 579 39,000  Level Salt Lake Center
04:23PM 43.1656 -116.4964 122° Southeast 497 572 39,000  Level Salt Lake Center
04:24PM 43.0956 -116.3414 122° Southeast 500 575 39,000  Level Salt Lake Center
04:25PM 43.0256 -116.1900 122° Southeast 495 570 39,000  Level Salt Lake Center
04:26PM 42.9439 -116.0142 122° Southeast 493 567 39,000  Level Salt Lake Center
04:27PM 42.8750 -115.8636 122° Southeast 488 562 39,000  Level Salt Lake Center
04:28PM 42.7936 -115.6881 122° Southeast 491 565 39,000  Level Salt Lake Center
04:29PM 42.7236 -115.5389 123° Southeast 490 564 39,000  Level Salt Lake Center
04:30PM 42.6419 -115.3656 123° Southeast 490 564 39,000  Level Salt Lake Center
04:31PM 42.5717 -115.2183 123° Southeast 486 559 39,000  Level Salt Lake Center
04:32PM 42.5031 -115.0711 122° Southeast 485 558 39,000  Level Salt Lake Center
04:33PM 42.4219 -114.9044 123° Southeast 485 558 39,000  Level Salt Lake Center
04:34PM 42.3553 -114.7644 123° Southeast 486 559 39,000  Level Salt Lake Center
04:35PM 42.2658 -114.5817 123° Southeast 488 562 39,000  Level Salt Lake Center
04:37PM 42.1933 -114.4283 123° Southeast 487 560 39,000  Level Salt Lake Center
04:38PM 42.1175 -114.2781 124° Southeast 486 559 39,000  Level Salt Lake Center
04:39PM 42.0433 -114.1258 123° Southeast 487 560 39,000  Level Salt Lake Center
04:40PM 41.9681 -113.9739 124° Southeast 489 563 39,000  Level Salt Lake Center
04:41PM 41.8939 -113.8233 123° Southeast 488 562 39,000 60 Level Salt Lake Center
04:42PM 41.8194 -113.6731 124° Southeast 485 558 39,200 420 Climbing Salt Lake Center
04:43PM 41.7267 -113.4903 124° Southeast 495 570 39,900 780 Climbing Salt Lake Center
04:44PM 41.6500 -113.3369 124° Southeast 497 572 40,900 480 Climbing Salt Lake Center
04:45PM 41.5711 -113.1872 125° Southeast 495 570 41,000  Climbing Salt Lake Center
04:46PM 41.4947 -113.0367 124° Southeast 493 567 41,000  Level Salt Lake Center
04:47PM 41.4181 -112.8847 124° Southeast 495 570 41,000  Level Salt Lake Center
04:48PM 41.3425 -112.7358 124° Southeast 490 564 41,000  Level Salt Lake Center
04:49PM 41.2653 -112.5883 125° Southeast 487 560 41,000  Level Salt Lake Center
04:50PM 41.1886 -112.4408 125° Southeast 486 559 41,000  Level Salt Lake Center
04:51PM 41.0967 -112.2644 125° Southeast 486 559 41,000  Level Salt Lake Center
04:52PM 41.0208 -112.1192 125° Southeast 485 558 41,000  Level Salt Lake Center
04:53PM 40.9450 -111.9769 125° Southeast 484 557 41,000  Level Salt Lake Center
04:54PM 40.8700 -111.8328 124° Southeast 492 566 41,000  Level Salt Lake Center
04:55PM 40.7917 -111.6872 125° Southeast 494 568 41,000  Level Salt Lake Center
04:56PM 40.6972 -111.5100 125° Southeast 496 571 41,000  Level Salt Lake Center
04:57PM 40.6181 -111.3633 125° Southeast 493 567 41,000  Level Salt Lake Center
04:58PM 40.5400 -111.2172 125° Southeast 491 565 41,000  Level Salt Lake Center
04:59PM 40.4603 -111.0719 126° Southeast 492 566 41,000  Level Salt Lake Center
05:00PM 40.3808 -110.9258 125° Southeast 495 570 41,000  Level Salt Lake Center
05:01PM 40.2967 -110.7725 126° Southeast 493 567 41,000  Level Salt Lake Center
05:02PM 40.2208 -110.6333 125° Southeast 491 565 41,000  Level Salt Lake Center
05:03PM 40.1314 -110.4717 126° Southeast 492 566 41,000  Level Salt Lake Center
05:04PM 40.0547 -110.3342 126° Southeast 491 565 41,000  Level Salt Lake Center
05:05PM 39.9656 -110.1742 126° Southeast 489 563 41,000  Level Salt Lake Center
05:06PM 39.8886 -110.0383 126° Southeast 487 560 41,000  Level Salt Lake Center
05:07PM 39.8125 -109.9031 126° Southeast 487 560 41,000  Level Salt Lake Center
05:08PM 39.7222 -109.7458 127° Southeast 487 560 41,000  Level Salt Lake Center
05:09PM 39.6444 -109.6092 126° Southeast 491 565 41,000  Level Salt Lake Center
05:10PM 39.5536 -109.4506 127° Southeast 492 566 41,000  Level Salt Lake Center
05:11PM 39.4756 -109.3142 127° Southeast 494 568 41,000  Level Salt Lake Center
05:12PM 39.4606 -109.2897 128° Southeast 493 567 41,000  Level Denver Center
05:13PM 39.3564 -109.1094 127° Southeast 494 568 41,000  Level Denver Center
05:14PM 39.2775 -108.9739 127° Southeast 498 573 41,000  Level Denver Center
05:15PM 39.1864 -108.8158 127° Southeast 496 571 41,000  Level Denver Center
05:16PM 39.1072 -108.6814 127° Southeast 495 570 41,000  Level Denver Center
05:17PM 39.0158 -108.5264 127° Southeast 487 560 41,000  Level Denver Center
05:18PM 38.9375 -108.3917 127° Southeast 491 565 41,000  Level Denver Center
05:19PM 38.8450 -108.2361 127° Southeast 490 564 41,000  Level Denver Center
05:20PM 38.7794 -108.1253 127° Southeast 490 564 41,000  Level Denver Center
05:21PM 38.6864 -107.9697 127° Southeast 493 567 41,000  Level Denver Center
05:22PM 38.5928 -107.8142 128° Southeast 494 568 41,000  Level Denver Center
05:23PM 38.5117 -107.6811 128° Southeast 497 572 41,000  Level Denver Center
05:24PM 38.4169 -107.5247 128° Southeast 497 572 41,000  Level Denver Center
05:25PM 38.3350 -107.3919 128° Southeast 498 573 41,000  Level Denver Center
05:26PM 38.2389 -107.2356 128° Southeast 502 578 41,000  Level Denver Center
05:27PM 38.1525 -107.0947 128° Southeast 509 586 41,000  Level Denver Center
05:28PM 38.0592 -106.9433 128° Southeast 502 578 41,000  Level Denver Center
05:29PM 37.9772 -106.8097 128° Southeast 503 579 41,000  Level Denver Center
05:30PM 37.8936 -106.6769 129° Southeast 503 579 41,000  Level Denver Center
05:31PM 37.7925 -106.5153 128° Southeast 505 581 41,000  Level Denver Center
05:32PM 37.7083 -106.3822 129° Southeast 505 581 41,000  Level Denver Center
05:33PM 37.6247 -106.2492 128° Southeast 504 580 41,000  Level Denver Center
05:34PM 37.5256 -106.0950 129° Southeast 506 582 41,000  Level Denver Center
05:35PM 37.4492 -105.9733 128° Southeast 471 542 41,000  Level Denver Center
05:36PM 37.3544 -105.8258 129° Southeast 481 554 41,000  Level Denver Center
05:37PM 37.2839 -105.6842 122° Southeast 497 572 41,000  Level Denver Center
05:38PM 37.2158 -105.5406 121° Southeast 493 567 41,000  Level Denver Center
05:39PM 37.1347 -105.3753 122° Southeast 498 573 41,000  Level Denver Center
05:40PM 37.0672 -105.2356 121° Southeast 493 567 41,000  Level Denver Center
05:41PM 36.9922 -105.0828 122° Southeast 492 566 41,000  Level Denver Center
05:43PM 36.9200 -104.9361 122° Southeast 494 568 41,000  Level Denver Center
05:44PM 36.8600 -104.8169 122° Southeast 496 571 41,000  Level Denver Center
05:44PM 36.7786 -104.6517 122° Southeast 496 571 41,000  Level Albuquerque Center
05:45PM 36.6972 -104.4894 122° Southeast 496 571 41,000  Level Albuquerque Center
05:47PM 36.6114 -104.3433 126° Southeast 489 563 41,000  Level Albuquerque Center
05:48PM 36.5078 -104.2339 140° Southeast 483 556 41,000  Level Albuquerque Center
05:49PM 36.4047 -104.1267 140° Southeast 480 552 41,000  Level Albuquerque Center
05:50PM 36.3006 -104.0206 141° Southeast 480 552 41,000  Level Albuquerque Center
05:51PM 36.1969 -103.9142 140° Southeast 478 550 41,000  Level Albuquerque Center
05:52PM 36.0914 -103.8033 140° Southeast 486 559 41,000  Level Albuquerque Center
05:53PM 35.9858 -103.6958 140° Southeast 486 559 41,000  Level Albuquerque Center
05:54PM 35.8811 -103.5886 140° Southeast 485 558 41,000  Level Albuquerque Center
05:55PM 35.7742 -103.4789 140° Southeast 490 564 41,000  Level Albuquerque Center
05:56PM 35.6686 -103.3703 140° Southeast 489 563 41,000  Level Albuquerque Center
05:57PM 35.5419 -103.2431 141° Southeast 495 570 41,000  Level Albuquerque Center
05:58PM 35.4350 -103.1339 140° Southeast 494 568 41,000  Level Albuquerque Center
05:59PM 35.3269 -103.0256 141° Southeast 495 570 41,000  Level Albuquerque Center
06:00PM 35.2189 -102.9194 141° Southeast 496 571 41,000  Level Albuquerque Center
06:01PM 35.1139 -102.8139 141° Southeast 493 567 41,000  Level Albuquerque Center
06:02PM 35.0031 -102.7047 141° Southeast 493 567 41,000  Level Albuquerque Center
06:03PM 34.9025 -102.6047 141° Southeast 492 566 41,000  Level Albuquerque Center
06:04PM 34.7775 -102.4808 141° Southeast 488 562 41,000  Level Albuquerque Center
06:05PM 34.6722 -102.3786 141° Southeast 487 560 41,000  Level Albuquerque Center
06:06PM 34.5681 -102.2739 140° Southeast 489 563 41,000  Level Albuquerque Center
06:07PM 34.4622 -102.1717 141° Southeast 490 564 41,000  Level Albuquerque Center
06:08PM 34.3556 -102.0678 141° Southeast 492 566 41,000  Level Albuquerque Center
06:09PM 34.2514 -101.9639 140° Southeast 490 564 41,000  Level Albuquerque Center
06:10PM 34.1297 -101.8619 145° Southeast 492 566 41,000  Level Fort Worth Center
06:11PM 34.0156 -101.7833 150° Southeast 481 554 41,000  Level Fort Worth Center
06:12PM 33.8875 -101.6894 149° Southeast 481 554 41,000  Level Fort Worth Center
06:13PM 33.7947 -101.5947 140° Southeast 491 565 41,000  Level Fort Worth Center
06:14PM 33.6772 -101.4819 141° Southeast 502 578 41,000  Level Fort Worth Center
06:15PM 33.5844 -101.3853 139° Southeast 502 578 41,000  Level Fort Worth Center
06:16PM 33.4628 -101.2728 142° Southeast 496 571 41,000  Level Fort Worth Center
06:17PM 33.3694 -101.1792 140° Southeast 496 571 41,000  Level Fort Worth Center
06:18PM 33.2539 -101.0700 142° Southeast 486 559 41,000  Level Fort Worth Center
06:19PM 33.1500 -100.9739 142° Southeast 486 559 41,000  Level Fort Worth Center
06:20PM 33.0444 -100.8756 142° Southeast 481 554 41,000  Level Fort Worth Center
06:21PM 32.9222 -100.7569 141° Southeast 481 554 41,000  Level Fort Worth Center
06:22PM 32.8144 -100.6564 142° Southeast 481 554 41,000  Level Fort Worth Center
06:23PM 32.7106 -100.5564 141° Southeast 481 554 41,000  Level Fort Worth Center
06:24PM 32.6042 -100.4589 142° Southeast 481 554 41,000  Level Fort Worth Center
06:25PM 32.5003 -100.3569 140° Southeast 481 554 41,000  Level Fort Worth Center
06:26PM 32.4144 -100.2753 141° Southeast 486 559 41,000  Level Fort Worth Center
06:27PM 32.2878 -100.1558 141° Southeast 486 559 41,000 -300 Level Fort Worth Center
06:28PM 32.1894 -100.0644 142° Southeast 491 565 40,500 -780 Descending Fort Worth Center
06:29PM 32.0828 -99.9683 143° Southeast 491 565 39,500 -780 Descending Fort Worth Center
06:30PM 31.9764 -99.8672 141° Southeast 491 565 39,000 -300 Descending Fort Worth Center
06:31PM 31.8697 -99.7667 141° Southeast 491 565 39,000 -780 Level Fort Worth Center
06:34PM 31.6261 -99.5408 142° Southeast 485 558 36,500 -1,800 Descending Houston Center
06:35PM 31.4969 -99.4253 143° Southeast 490 564 33,000 -2,700 Descending Houston Center
06:36PM 31.3978 -99.3050 134° Southeast 507 583 31,000 -1,440 Descending Houston Center
06:37PM 31.3253 -99.1642 121° Southeast 506 582 30,100 -960 Descending Houston Center
06:38PM 31.2506 -99.0264 122° Southeast 499 574 29,100 -1,020 Descending Houston Center
06:39PM 31.1753 -98.8903 123° Southeast 495 570 28,000 -1,860 Descending Houston Center
06:40PM 31.1011 -98.7572 123° Southeast 484 557 25,300 -2,640 Descending Houston Center
06:41PM 31.0311 -98.6314 123° Southeast 464 534 22,600 -2,760 Descending Houston Center
06:42PM 30.9536 -98.4914 123° Southeast 442 509 19,600 -2,820 Descending Houston Center
06:43PM 30.8892 -98.3767 123° Southeast 424 488 16,800 -2,580 Descending Houston Center
06:44PM 30.8281 -98.2669 123° Southeast 405 466 14,300 -2,460 Descending Houston Center
06:45PM 30.7678 -98.1614 124° Southeast 392 451 11,800 -2,160 Descending Houston Center
06:46PM 30.7100 -98.0608 124° Southeast 378 435 9,900 -1,080 Descending Houston Center
06:47PM 30.6564 -97.9794 127° Southeast 327 376 9,600 -960 Descending Houston Center
06:48PM 30.5961 -97.9203 140° Southeast 291 335 8,000 -1,680 Descending Houston Center
06:49PM 30.5281 -97.8544 140° Southeast 276 318 6,200 -1,560 Descending Houston Center
06:50PM 30.4703 -97.8047 143° Southeast 262 302 4,800 -1,440 Descending Houston Center
06:51PM 30.4086 -97.7631 150° Southeast 258 297 3,300 -1,320 Descending Houston Center
06:52PM 30.3492 -97.7206 148° Southeast 253 291 2,100 -660 Descending Houston Center
06:53PM 30.3008 -97.6864 149° Southeast 227 261 2,000 -300 Descending Houston Center
06:54PM 30.2672 -97.6803 171° South 161 185 1,500 -540 Descending Houston Center
06:56PM 30.2306 -97.6792 179° South 138 159 900 -600 Descending Houston Center
06:57PM 30.1945 -97.6699 221° Southwest  Level Estimated
07:04PM 30.1945 -97.6699 221° Southwest  Level Estimated